createdAt,value
2018-07-20T00:02:10.958Z,21.47
2018-07-20T00:04:39.994Z,21.49
2018-07-20T00:07:09.013Z,21.52
2018-07-20T00:09:38.219Z,21.49
2018-07-20T00:12:07.284Z,21.47
2018-07-20T00:14:36.329Z,21.39
2018-07-20T00:17:05.368Z,21.34
2018-07-20T00:19:34.409Z,21.32
2018-07-20T00:22:03.446Z,21.32
2018-07-20T00:24:32.405Z,21.28
2018-07-20T00:27:01.498Z,21.24
2018-07-20T00:29:30.475Z,21.19
2018-07-20T00:31:59.617Z,21.16
2018-07-20T00:34:28.637Z,21.18
2018-07-20T00:36:57.651Z,21.18
2018-07-20T00:39:26.713Z,21.22
2018-07-20T00:41:55.805Z,21.20
2018-07-20T00:44:24.761Z,21.22
2018-07-20T00:46:53.786Z,21.21
2018-07-20T00:49:22.864Z,21.26
2018-07-20T00:51:51.828Z,21.32
2018-07-20T00:54:20.856Z,21.38
2018-07-20T00:56:49.880Z,21.45
2018-07-20T00:59:18.860Z,21.56
2018-07-20T01:01:47.816Z,21.62
2018-07-20T01:04:16.862Z,21.66
2018-07-20T01:06:45.876Z,21.71
2018-07-20T01:09:14.861Z,21.79
2018-07-20T01:11:43.948Z,21.84
2018-07-20T01:14:12.920Z,21.89
2018-07-20T01:16:42.009Z,21.93
2018-07-20T01:19:10.983Z,21.98
2018-07-20T01:21:40.077Z,21.99
2018-07-20T01:24:09.132Z,22.00
2018-07-20T01:26:38.212Z,21.99
2018-07-20T01:29:07.180Z,22.06
2018-07-20T01:31:36.224Z,22.08
2018-07-20T01:34:05.244Z,22.12
2018-07-20T01:36:34.289Z,22.16
2018-07-20T01:39:03.469Z,22.19
2018-07-20T01:41:32.504Z,22.17
2018-07-20T01:44:01.558Z,22.19
2018-07-20T01:46:30.564Z,22.19
2018-07-20T01:48:59.658Z,22.17
2018-07-20T01:51:28.682Z,22.23
2018-07-20T01:53:57.702Z,22.22
2018-07-20T01:56:40.979Z,22.25
2018-07-20T01:59:09.995Z,22.22
2018-07-20T02:01:39.165Z,22.25
2018-07-20T02:04:08.338Z,22.23
2018-07-20T02:06:37.362Z,22.24
2018-07-20T02:09:08.947Z,22.23
2018-07-20T02:11:37.994Z,22.24
2018-07-20T02:14:07.163Z,22.30
2018-07-20T02:16:36.279Z,22.31
2018-07-20T02:19:05.260Z,22.30
2018-07-20T02:21:34.236Z,22.28
2018-07-20T02:24:03.290Z,22.28
2018-07-20T02:26:32.252Z,22.30
2018-07-20T02:29:01.316Z,22.39
2018-07-20T02:31:30.340Z,22.38
2018-07-20T02:33:59.372Z,22.41
2018-07-20T02:36:28.364Z,22.46
2018-07-20T02:38:57.371Z,22.47
2018-07-20T02:41:26.475Z,22.49
2018-07-20T02:43:55.517Z,22.49
2018-07-20T02:46:24.562Z,22.52
2018-07-20T02:48:53.585Z,22.51
2018-07-20T02:51:22.624Z,22.54
2018-07-20T02:53:51.694Z,22.59
2018-07-20T02:56:20.737Z,22.62
2018-07-20T02:58:49.776Z,22.64
2018-07-20T03:01:18.801Z,22.65
2018-07-20T03:03:47.847Z,22.65
2018-07-20T03:06:16.987Z,22.66
2018-07-20T03:08:46.027Z,22.64
2018-07-20T03:11:15.133Z,22.65
2018-07-20T03:13:44.462Z,22.68
2018-07-20T03:16:13.464Z,22.70
2018-07-20T03:18:42.486Z,22.71
2018-07-20T03:21:11.678Z,22.73
2018-07-20T03:23:40.772Z,22.72
2018-07-20T03:26:09.773Z,22.75
2018-07-20T03:28:38.747Z,22.75
2018-07-20T03:31:07.775Z,22.77
2018-07-20T03:33:36.813Z,22.79
2018-07-20T03:36:05.772Z,22.80
2018-07-20T03:38:34.764Z,22.83
2018-07-20T03:41:03.810Z,22.83
2018-07-20T03:43:33.005Z,22.76
2018-07-20T03:46:02.036Z,22.64
2018-07-20T03:48:31.127Z,22.44
2018-07-20T03:51:00.079Z,22.29
2018-07-20T03:53:29.157Z,22.13
2018-07-20T03:55:58.233Z,21.93
2018-07-20T03:58:27.305Z,21.84
2018-07-20T04:00:56.271Z,21.83
2018-07-20T04:03:25.328Z,21.83
2018-07-20T04:05:54.299Z,21.82
2018-07-20T04:08:23.356Z,21.90
2018-07-20T04:10:52.445Z,21.98
2018-07-20T04:13:21.432Z,22.10
2018-07-20T04:15:50.435Z,22.31
2018-07-20T04:18:19.499Z,22.38
2018-07-20T04:20:48.537Z,22.48
2018-07-20T04:23:17.521Z,22.59
2018-07-20T04:25:47.352Z,22.75
2018-07-20T04:28:16.422Z,22.86
2018-07-20T04:30:45.486Z,22.98
2018-07-20T04:33:14.508Z,23.05
2018-07-20T04:35:43.462Z,23.21
2018-07-20T04:38:12.546Z,23.26
2018-07-20T04:40:41.540Z,23.49
2018-07-20T04:43:10.705Z,23.68
2018-07-20T04:45:39.749Z,24.02
2018-07-20T04:48:08.765Z,24.53
2018-07-20T04:50:38.195Z,24.84
2018-07-20T04:53:07.247Z,26.22
2018-07-20T04:55:36.296Z,28.11
2018-07-20T04:58:05.276Z,29.46
2018-07-20T05:00:34.282Z,28.99
2018-07-20T05:03:03.309Z,28.14
2018-07-20T05:05:32.372Z,27.43
2018-07-20T05:08:02.217Z,26.79
2018-07-20T05:10:31.261Z,26.53
2018-07-20T05:13:00.302Z,26.18
2018-07-20T05:15:29.309Z,25.84
2018-07-20T05:17:58.336Z,25.42
2018-07-20T05:20:27.352Z,25.38
2018-07-20T05:22:56.394Z,25.47
2018-07-20T05:25:25.462Z,25.66
2018-07-20T05:27:54.569Z,25.99
2018-07-20T05:30:23.613Z,26.78
2018-07-20T05:32:52.571Z,27.71
2018-07-20T05:35:21.592Z,28.33
2018-07-20T05:37:50.617Z,28.92
2018-07-20T05:40:19.730Z,30.48
2018-07-20T05:42:48.701Z,31.37
2018-07-20T05:45:17.647Z,31.94
2018-07-20T05:47:46.612Z,31.94
2018-07-20T05:50:15.614Z,31.20
2018-07-20T05:52:44.601Z,30.86
2018-07-20T05:55:13.602Z,30.51
2018-07-20T05:57:42.572Z,29.92
2018-07-20T06:00:11.589Z,29.66
2018-07-20T06:02:40.603Z,29.30
2018-07-20T06:05:09.667Z,29.48
2018-07-20T06:07:38.627Z,29.20
2018-07-20T06:10:07.694Z,29.45
2018-07-20T06:12:36.676Z,29.66
2018-07-20T06:15:06.209Z,29.90
2018-07-20T06:17:35.342Z,29.71
2018-07-20T06:20:04.424Z,29.25
2018-07-20T06:22:33.380Z,29.52
2018-07-20T06:25:02.347Z,30.09
2018-07-20T06:27:31.390Z,30.92
2018-07-20T06:30:00.619Z,30.75
2018-07-20T06:32:29.664Z,29.97
2018-07-20T06:34:58.742Z,29.27
2018-07-20T06:37:27.774Z,29.63
2018-07-20T06:39:56.748Z,30.32
2018-07-20T06:42:25.795Z,30.64
2018-07-20T06:44:54.781Z,30.09
2018-07-20T06:47:23.853Z,30.28
2018-07-20T06:49:52.870Z,30.32
2018-07-20T06:52:21.874Z,30.34
2018-07-20T06:54:50.902Z,30.84
2018-07-20T06:57:19.916Z,31.37
2018-07-20T06:59:48.963Z,31.60
2018-07-20T07:02:18.039Z,31.33
2018-07-20T07:04:47.096Z,31.20
2018-07-20T07:07:16.113Z,31.57
2018-07-20T07:09:45.129Z,32.15
2018-07-20T07:12:14.219Z,32.64
2018-07-20T07:14:43.292Z,31.94
2018-07-20T07:17:12.414Z,31.82
2018-07-20T07:19:42.127Z,31.93
2018-07-20T07:22:11.262Z,31.88
2018-07-20T07:24:40.300Z,31.78
2018-07-20T07:27:09.349Z,31.56
2018-07-20T07:29:38.329Z,31.32
2018-07-20T07:32:07.294Z,31.46
2018-07-20T07:34:36.307Z,31.77
2018-07-20T07:37:05.497Z,31.66
2018-07-20T07:39:34.529Z,31.52
2018-07-20T07:42:03.576Z,32.05
2018-07-20T07:44:32.647Z,31.61
2018-07-20T07:47:01.706Z,31.68
2018-07-20T07:49:30.735Z,31.37
2018-07-20T07:51:59.813Z,31.67
2018-07-20T07:54:28.883Z,32.47
2018-07-20T07:56:57.844Z,33.18
2018-07-20T07:59:26.943Z,32.81
2018-07-20T08:01:55.964Z,32.50
2018-07-20T08:04:25.077Z,32.69
2018-07-20T08:06:54.060Z,32.52
2018-07-20T08:09:23.099Z,32.23
2018-07-20T08:11:52.126Z,32.30
2018-07-20T08:14:21.136Z,32.28
2018-07-20T08:16:50.196Z,32.46
2018-07-20T08:19:19.254Z,32.28
2018-07-20T08:21:48.280Z,32.08
2018-07-20T08:24:17.246Z,32.68
2018-07-20T08:26:46.305Z,33.06
2018-07-20T08:29:15.340Z,33.55
2018-07-20T08:31:44.412Z,33.63
2018-07-20T08:34:13.403Z,32.97
2018-07-20T08:36:42.371Z,32.49
2018-07-20T08:39:11.853Z,32.46
2018-07-20T08:41:40.892Z,32.20
2018-07-20T08:44:09.930Z,31.85
2018-07-20T08:46:39.060Z,31.77
2018-07-20T08:49:08.120Z,31.75
2018-07-20T08:51:37.148Z,31.49
2018-07-20T08:54:06.175Z,31.56
2018-07-20T08:56:35.215Z,31.41
2018-07-20T08:59:04.265Z,31.56
2018-07-20T09:01:33.281Z,31.52
2018-07-20T09:04:02.314Z,31.16
2018-07-20T09:06:31.393Z,30.97
2018-07-20T09:09:00.409Z,30.97
2018-07-20T09:11:29.417Z,30.91
2018-07-20T09:13:58.551Z,31.20
2018-07-20T09:16:27.523Z,31.46
2018-07-20T09:18:56.574Z,31.61
2018-07-20T09:21:25.609Z,32.04
2018-07-20T09:23:54.648Z,32.32
2018-07-20T09:26:23.665Z,32.93
2018-07-20T09:28:52.673Z,33.44
2018-07-20T09:31:21.683Z,33.66
2018-07-20T09:33:50.706Z,33.80
2018-07-20T09:36:19.776Z,34.11
2018-07-20T09:38:48.832Z,33.83
2018-07-20T09:41:17.878Z,34.11
2018-07-20T09:43:46.993Z,33.76
2018-07-20T09:46:16.166Z,33.13
2018-07-20T09:48:45.140Z,33.03
2018-07-20T09:51:14.122Z,33.50
2018-07-20T09:53:43.189Z,33.67
2018-07-20T09:56:12.218Z,34.11
2018-07-20T09:58:41.273Z,34.09
2018-07-20T10:01:10.252Z,34.48
2018-07-20T10:03:39.317Z,34.06
2018-07-20T10:06:08.373Z,34.65
2018-07-20T10:08:37.417Z,34.97
2018-07-20T10:11:06.405Z,34.93
2018-07-20T10:13:35.385Z,35.64
2018-07-20T10:16:04.417Z,35.81
2018-07-20T10:18:33.500Z,36.26
2018-07-20T10:21:02.501Z,36.06
2018-07-20T10:23:31.463Z,35.66
2018-07-20T10:26:00.497Z,35.85
2018-07-20T10:28:29.516Z,36.27
2018-07-20T10:30:58.607Z,36.71
2018-07-20T10:33:27.680Z,36.60
2018-07-20T10:35:56.659Z,36.43
2018-07-20T10:38:25.666Z,36.58
2018-07-20T10:40:54.723Z,36.39
2018-07-20T10:43:25.205Z,36.03
2018-07-20T10:45:54.163Z,35.70
2018-07-20T10:48:23.236Z,35.05
2018-07-20T10:50:52.289Z,35.02
2018-07-20T10:53:21.260Z,34.37
2018-07-20T10:55:50.365Z,34.21
2018-07-20T10:58:19.404Z,34.77
2018-07-20T11:00:48.473Z,36.00
2018-07-20T11:03:17.435Z,37.10
2018-07-20T11:05:46.497Z,37.17
2018-07-20T11:08:15.510Z,36.49
2018-07-20T11:10:44.620Z,35.59
2018-07-20T11:13:13.873Z,35.35
2018-07-20T11:15:42.841Z,35.69
2018-07-20T11:18:11.813Z,36.46
2018-07-20T11:20:40.857Z,36.05
2018-07-20T11:23:09.827Z,36.54
2018-07-20T11:25:38.790Z,36.75
2018-07-20T11:28:07.812Z,37.00
2018-07-20T11:30:36.836Z,37.63
2018-07-20T11:33:05.932Z,37.95
2018-07-20T11:35:34.925Z,38.35
2018-07-20T11:38:03.892Z,38.37
2018-07-20T11:40:32.933Z,37.87
2018-07-20T11:43:01.903Z,38.22
2018-07-20T11:45:30.866Z,38.85
2018-07-20T11:47:59.871Z,39.23
2018-07-20T11:50:28.854Z,39.97
2018-07-20T11:52:57.816Z,40.29
2018-07-20T11:55:26.869Z,40.51
2018-07-20T11:57:55.980Z,40.80
2018-07-20T12:00:25.033Z,40.51
2018-07-20T12:02:54.070Z,39.63
2018-07-20T12:05:23.182Z,40.38
2018-07-20T12:07:52.417Z,40.78
2018-07-20T12:10:21.485Z,39.94
2018-07-20T12:12:50.614Z,40.13
2018-07-20T12:15:19.701Z,39.77
2018-07-20T12:17:48.853Z,39.78
2018-07-20T12:20:17.882Z,39.73
2018-07-20T12:22:46.833Z,39.38
2018-07-20T12:25:15.863Z,39.16
2018-07-20T12:27:44.819Z,39.35
2018-07-20T12:30:13.865Z,39.68
2018-07-20T12:32:42.884Z,39.73
2018-07-20T12:35:11.932Z,40.06
2018-07-20T12:37:40.900Z,39.42
2018-07-20T12:40:09.917Z,38.89
2018-07-20T12:42:38.880Z,38.65
2018-07-20T12:45:08.369Z,38.41
2018-07-20T12:47:37.692Z,38.07
2018-07-20T12:50:06.810Z,37.87
2018-07-20T12:52:35.804Z,37.54
2018-07-20T12:55:04.825Z,37.11
2018-07-20T12:57:33.877Z,36.91
2018-07-20T13:00:02.988Z,36.71
2018-07-20T13:02:32.114Z,37.10
2018-07-20T13:05:01.230Z,36.24
2018-07-20T13:07:30.204Z,36.09
2018-07-20T13:09:59.347Z,36.66
2018-07-20T13:12:28.325Z,37.03
2018-07-20T13:14:57.361Z,37.06
2018-07-20T13:17:26.433Z,37.44
2018-07-20T13:19:55.428Z,37.51
2018-07-20T13:22:24.589Z,37.68
2018-07-20T13:24:53.664Z,37.83
2018-07-20T13:27:22.742Z,38.24
2018-07-20T13:29:51.736Z,38.76
2018-07-20T13:32:20.739Z,38.16
2018-07-20T13:34:49.769Z,37.94
2018-07-20T13:37:18.760Z,38.19
2018-07-20T13:39:47.802Z,37.24
2018-07-20T13:42:16.841Z,36.71
2018-07-20T13:44:45.853Z,36.49
2018-07-20T13:47:14.896Z,36.88
2018-07-20T13:49:43.896Z,37.62
2018-07-20T13:52:12.872Z,38.10
2018-07-20T13:54:41.935Z,38.75
2018-07-20T13:57:11.055Z,38.80
2018-07-20T13:59:40.068Z,38.63
2018-07-20T14:02:09.051Z,38.55
2018-07-20T14:04:38.040Z,37.52
2018-07-20T14:07:07.120Z,36.68
2018-07-20T14:09:36.157Z,36.12
2018-07-20T14:12:05.152Z,35.61
2018-07-20T14:14:34.180Z,35.22
2018-07-20T14:17:03.257Z,35.14
2018-07-20T14:19:32.252Z,35.25
2018-07-20T14:22:01.301Z,34.73
2018-07-20T14:24:30.637Z,34.67
2018-07-20T14:27:00.017Z,34.43
2018-07-20T14:29:29.074Z,34.19
2018-07-20T14:31:58.345Z,34.23
2018-07-20T14:34:27.336Z,34.04
2018-07-20T14:36:56.308Z,33.71
2018-07-20T14:39:25.349Z,33.43
2018-07-20T14:41:54.397Z,33.27
2018-07-20T14:44:23.452Z,33.25
2018-07-20T14:46:52.484Z,33.08
2018-07-20T14:49:21.521Z,33.00
2018-07-20T14:51:50.487Z,32.97
2018-07-20T14:54:19.572Z,33.04
2018-07-20T14:56:48.570Z,33.11
2018-07-20T14:59:17.666Z,33.09
2018-07-20T15:01:46.776Z,33.04
2018-07-20T15:04:15.760Z,32.99
2018-07-20T15:06:44.914Z,32.83
2018-07-20T15:09:13.961Z,32.96
2018-07-20T15:11:42.954Z,32.92
2018-07-20T15:14:11.924Z,32.84
2018-07-20T15:16:40.981Z,32.76
2018-07-20T15:19:09.933Z,32.52
2018-07-20T15:21:38.885Z,32.53
2018-07-20T15:24:07.950Z,32.42
2018-07-20T15:26:36.973Z,32.33
2018-07-20T15:29:06.000Z,32.08
2018-07-20T15:31:34.996Z,32.01
2018-07-20T15:34:03.973Z,31.95
2018-07-20T15:36:32.935Z,31.86
2018-07-20T15:39:01.949Z,31.76
2018-07-20T15:41:30.976Z,31.62
2018-07-20T15:44:00.023Z,31.60
2018-07-20T15:46:29.136Z,31.53
2018-07-20T15:48:57.991Z,31.51
2018-07-20T15:51:55.486Z,31.44
2018-07-20T15:53:55.995Z,31.34
2018-07-20T15:56:25.004Z,31.31
2018-07-20T15:58:53.961Z,31.19
2018-07-20T16:01:23.021Z,31.05
2018-07-20T16:03:51.968Z,30.94
2018-07-20T16:06:21.069Z,30.92
2018-07-20T16:08:50.052Z,30.79
2018-07-20T16:11:19.064Z,30.71
2018-07-20T16:13:48.036Z,30.55
2018-07-20T16:16:17.228Z,30.49
2018-07-20T16:18:46.256Z,30.38
2018-07-20T16:21:15.216Z,30.27
2018-07-20T16:23:44.314Z,30.13
2018-07-20T16:26:13.398Z,30.04
2018-07-20T16:28:42.415Z,29.98
2018-07-20T16:31:11.468Z,29.85
2018-07-20T16:33:40.506Z,29.78
2018-07-20T16:36:09.492Z,29.67
2018-07-20T16:38:38.590Z,29.59
2018-07-20T16:41:07.898Z,29.52
2018-07-20T16:43:36.937Z,29.46
2018-07-20T16:46:06.001Z,29.35
2018-07-20T16:48:35.007Z,29.24
2018-07-20T16:51:04.784Z,29.13
2018-07-20T16:53:33.805Z,29.05
2018-07-20T16:56:02.889Z,28.96
2018-07-20T16:58:34.089Z,28.88
2018-07-20T17:01:03.098Z,28.86
2018-07-20T17:03:32.122Z,28.78
2018-07-20T17:06:01.360Z,28.68
2018-07-20T17:08:30.449Z,28.55
2018-07-20T17:10:59.467Z,28.48
2018-07-20T17:13:28.468Z,28.47
2018-07-20T17:15:57.508Z,28.23
2018-07-20T17:18:26.622Z,28.32
2018-07-20T17:20:55.657Z,28.26
2018-07-20T17:23:24.595Z,28.21
2018-07-20T17:25:53.732Z,28.13
2018-07-20T17:28:22.814Z,28.07
2018-07-20T17:30:51.782Z,27.94
2018-07-20T17:33:20.865Z,27.91
2018-07-20T17:35:50.048Z,27.87
2018-07-20T17:38:19.226Z,27.80
2018-07-20T17:40:48.220Z,27.73
2018-07-20T17:43:17.312Z,27.63
2018-07-20T17:45:46.626Z,27.59
2018-07-20T17:48:15.689Z,27.49
2018-07-20T17:50:44.842Z,27.39
2018-07-20T17:53:13.885Z,27.29
2018-07-20T17:55:42.888Z,27.23
2018-07-20T17:58:11.998Z,27.18
2018-07-20T18:00:40.975Z,27.09
2018-07-20T18:03:09.977Z,27.02
2018-07-20T18:05:39.075Z,26.96
2018-07-20T18:08:08.043Z,26.90
2018-07-20T18:10:36.984Z,26.83
2018-07-20T18:13:06.032Z,26.77
2018-07-20T18:15:35.036Z,26.65
2018-07-20T18:18:04.184Z,26.55
2018-07-20T18:20:33.194Z,26.44
2018-07-20T18:23:02.233Z,26.37
2018-07-20T18:25:31.232Z,26.27
2018-07-20T18:28:00.335Z,26.19
2018-07-20T18:30:29.336Z,26.09
2018-07-20T18:32:58.288Z,26.03
2018-07-20T18:35:27.385Z,25.92
2018-07-20T18:37:56.426Z,25.85
2018-07-20T18:40:25.400Z,25.83
2018-07-20T18:42:54.440Z,25.81
2018-07-20T18:45:23.549Z,25.75
2018-07-20T18:47:52.576Z,25.70
2018-07-20T18:50:21.656Z,25.64
2018-07-20T18:52:50.748Z,25.59
2018-07-20T18:55:19.713Z,25.58
2018-07-20T18:57:48.753Z,25.54
2018-07-20T19:00:17.782Z,25.48
2018-07-20T19:02:46.829Z,25.49
2018-07-20T19:05:15.952Z,25.45
2018-07-20T19:07:44.953Z,25.40
2018-07-20T19:10:14.019Z,25.42
2018-07-20T19:12:43.106Z,25.43
2018-07-20T19:15:12.064Z,25.39
2018-07-20T19:17:41.146Z,25.37
2018-07-20T19:20:10.209Z,25.40
2018-07-20T19:22:39.289Z,25.40
2018-07-20T19:25:08.325Z,25.18
2018-07-20T19:27:37.393Z,25.49
2018-07-20T19:30:06.368Z,25.53
2018-07-20T19:32:35.418Z,25.59
2018-07-20T19:35:04.472Z,25.63
2018-07-20T19:37:33.418Z,25.72
2018-07-20T19:40:02.458Z,25.71
2018-07-20T19:42:31.636Z,25.72
2018-07-20T19:45:00.599Z,25.73
2018-07-20T19:47:29.559Z,25.71
2018-07-20T19:49:58.564Z,25.75
2018-07-20T19:52:27.536Z,25.71
2018-07-20T19:54:56.508Z,25.69
2018-07-20T19:57:25.517Z,25.65
2018-07-20T19:59:54.538Z,25.61
2018-07-20T20:02:23.626Z,25.62
2018-07-20T20:04:52.700Z,25.59
2018-07-20T20:07:21.748Z,25.60
2018-07-20T20:09:50.774Z,25.61
2018-07-20T20:12:19.713Z,25.63
2018-07-20T20:14:48.687Z,25.69
2018-07-20T20:17:17.679Z,25.71
2018-07-20T20:19:46.687Z,25.66
2018-07-20T20:22:15.747Z,25.63
2018-07-20T20:24:44.999Z,25.69
2018-07-20T20:27:14.009Z,25.68
2018-07-20T20:29:43.022Z,25.65
2018-07-20T20:32:12.011Z,25.71
2018-07-20T20:34:41.059Z,25.73
2018-07-20T20:37:10.099Z,25.72
2018-07-20T20:39:39.048Z,25.70
2018-07-20T20:42:08.308Z,25.65
2018-07-20T20:44:37.267Z,25.64
2018-07-20T20:47:06.292Z,25.61
2018-07-20T20:49:35.419Z,25.61
2018-07-20T20:52:04.413Z,25.60
2018-07-20T20:54:33.440Z,25.65
2018-07-20T20:57:02.469Z,25.70
2018-07-20T20:59:31.400Z,25.71
2018-07-20T21:02:00.436Z,25.65
2018-07-20T21:04:29.553Z,25.60
2018-07-20T21:06:58.596Z,25.54
2018-07-20T21:09:27.620Z,25.51
2018-07-20T21:11:56.705Z,25.48
2018-07-20T21:14:25.618Z,25.42
2018-07-20T21:16:54.632Z,25.41
2018-07-20T21:19:23.628Z,25.33
2018-07-20T21:21:52.628Z,25.32
2018-07-20T21:24:21.657Z,25.29
2018-07-20T21:26:50.652Z,25.27
2018-07-20T21:29:19.610Z,25.29
2018-07-20T21:31:48.582Z,25.28
2018-07-20T21:34:17.632Z,25.21
2018-07-20T21:36:46.721Z,25.24
2018-07-20T21:39:15.837Z,25.15
2018-07-20T21:41:44.787Z,25.13
2018-07-20T21:44:13.838Z,25.10
2018-07-20T21:46:42.880Z,25.09
2018-07-20T21:49:11.816Z,25.12
2018-07-20T21:51:40.850Z,25.10
2018-07-20T21:54:09.831Z,25.07
2018-07-20T21:56:38.788Z,25.08
2018-07-20T21:59:07.804Z,25.05
2018-07-20T22:01:36.899Z,25.04
2018-07-20T22:04:05.932Z,25.08
2018-07-20T22:06:35.037Z,25.07
2018-07-20T22:09:04.533Z,25.07
2018-07-20T22:11:33.502Z,25.05
2018-07-20T22:14:02.479Z,25.00
2018-07-20T22:16:31.420Z,25.03
2018-07-20T22:19:00.407Z,24.94
2018-07-20T22:21:29.403Z,24.94
2018-07-20T22:23:58.505Z,24.93
2018-07-20T22:26:27.638Z,24.90
2018-07-20T22:28:56.665Z,24.93
2018-07-20T22:31:25.709Z,24.86
2018-07-20T22:33:54.747Z,24.81
2018-07-20T22:36:23.842Z,24.81
2018-07-20T22:38:52.857Z,24.79
2018-07-20T22:41:21.945Z,24.79
2018-07-20T22:43:51.047Z,24.80
2018-07-20T22:46:20.096Z,24.75
2018-07-20T22:48:49.052Z,24.73
2018-07-20T22:51:18.008Z,24.67
2018-07-20T22:53:46.983Z,24.63
2018-07-20T22:56:15.957Z,24.62
2018-07-20T22:58:45.077Z,24.67
2018-07-20T23:01:14.118Z,24.67
2018-07-20T23:03:43.149Z,24.63
2018-07-20T23:06:42.848Z,24.61
2018-07-20T23:09:12.161Z,24.58
2018-07-20T23:11:41.260Z,24.53
2018-07-20T23:14:10.296Z,24.46
2018-07-20T23:16:39.499Z,24.43
2018-07-20T23:19:09.051Z,24.35
2018-07-20T23:21:38.036Z,24.35
2018-07-20T23:24:07.077Z,24.28
2018-07-20T23:26:36.047Z,24.23
2018-07-20T23:29:05.085Z,24.21
2018-07-20T23:31:34.180Z,24.19
2018-07-20T23:34:03.167Z,24.24
2018-07-20T23:36:32.186Z,24.27
2018-07-20T23:39:01.165Z,24.31
2018-07-20T23:41:30.317Z,24.29
2018-07-20T23:43:59.306Z,24.26
2018-07-20T23:46:28.359Z,24.23
2018-07-20T23:48:57.351Z,24.22
2018-07-20T23:51:26.316Z,24.19
2018-07-20T23:53:55.412Z,24.16
2018-07-20T23:56:24.383Z,24.11
2018-07-20T23:58:53.452Z,24.11
